createdAt,value
2019-05-20T11:20:27.558Z,21.75
2019-05-20T11:21:27.485Z,22.26
2019-05-20T11:22:27.496Z,22.18
2019-05-20T11:23:27.708Z,22.29
2019-05-20T11:24:27.542Z,22.20
2019-05-20T11:25:27.408Z,22.17
2019-05-20T11:26:28.143Z,22.23
2019-05-20T11:27:27.729Z,22.23
2019-05-20T11:28:27.674Z,22.33
2019-05-20T11:29:27.744Z,22.32
2019-05-20T11:30:27.648Z,22.32
2019-05-20T11:31:27.761Z,22.28
2019-05-20T11:32:27.774Z,22.35
2019-05-20T11:37:51.975Z,24.61
2019-05-20T11:38:51.793Z,24.24
2019-05-20T11:39:52.806Z,23.83
2019-05-20T11:40:51.985Z,23.44
2019-05-20T11:41:53.920Z,23.39
2019-05-20T11:42:51.897Z,23.31
2019-05-20T11:43:52.136Z,23.34
2019-05-20T11:44:53.246Z,23.47
2019-05-20T11:45:52.059Z,23.73
2019-05-20T11:46:51.923Z,24.02
2019-05-20T11:47:52.505Z,23.95
2019-05-20T11:48:51.818Z,23.99
2019-05-20T11:49:51.946Z,23.92
2019-05-20T11:50:52.290Z,23.47
2019-05-20T11:51:51.891Z,22.51
2019-05-20T11:52:51.639Z,20.80
2019-05-20T11:53:51.595Z,20.02
2019-05-20T11:54:52.291Z,19.40
2019-05-20T11:55:52.095Z,18.93
2019-05-20T11:56:51.663Z,18.08
2019-05-20T11:57:51.609Z,18.34
2019-05-20T11:58:51.718Z,18.83
2019-05-20T11:59:51.528Z,17.72
2019-05-20T12:00:51.648Z,16.61
2019-05-20T12:01:51.626Z,16.15
2019-05-20T12:02:51.531Z,15.95
2019-05-20T12:03:51.550Z,15.90
2019-05-20T12:04:51.487Z,15.76
2019-05-20T12:05:51.591Z,15.75
2019-05-20T12:06:51.771Z,15.77
2019-05-20T12:07:51.597Z,15.83
2019-05-20T12:08:51.471Z,16.42
2019-05-20T12:09:51.594Z,17.52
2019-05-20T12:10:51.517Z,18.07
2019-05-20T12:11:51.802Z,18.37
2019-05-20T12:12:51.511Z,18.98
